createdAt,value
2023-01-10T00:10:40.353Z,13.18
2023-01-10T00:25:42.500Z,12.43
2023-01-10T00:40:45.519Z,13.60
2023-01-10T00:55:47.718Z,14.73
2023-01-10T01:10:49.742Z,14.23
2023-01-10T01:25:52.834Z,15.30
2023-01-10T01:40:54.889Z,17.75
2023-01-10T01:56:01.219Z,16.67
2023-01-10T02:11:09.443Z,16.02
2023-01-10T02:26:59.050Z,15.43
2023-01-10T02:42:18.929Z,14.48
2023-01-10T02:58:18.865Z,14.00
2023-01-10T03:13:42.289Z,12.13
2023-01-10T03:28:55.024Z,9.65
2023-01-10T03:44:36.003Z,7.60
2023-01-10T03:59:37.926Z,6.68
2023-01-10T04:14:39.915Z,6.15
2023-01-10T04:29:41.938Z,6.32
2023-01-10T04:44:43.900Z,6.50
2023-01-10T04:59:45.828Z,6.75
2023-01-10T05:14:47.804Z,6.72
2023-01-10T05:29:49.778Z,5.95
2023-01-10T05:44:51.712Z,6.90
2023-01-10T05:59:53.715Z,6.55
2023-01-10T06:14:55.671Z,6.65
2023-01-10T06:29:59.333Z,6.40
2023-01-10T06:45:01.320Z,6.85
2023-01-10T07:00:05.979Z,6.63
2023-01-10T07:15:08.640Z,5.80
2023-01-10T07:30:11.221Z,6.50
2023-01-10T07:45:13.332Z,6.95
2023-01-10T08:00:18.600Z,7.20
2023-01-10T08:15:20.949Z,6.97
2023-01-10T08:30:23.599Z,7.55
2023-01-10T08:45:25.859Z,8.00
2023-01-10T09:00:28.594Z,7.00
2023-01-10T09:15:35.506Z,7.22
2023-01-10T09:30:37.740Z,5.70
2023-01-10T09:46:12.722Z,6.32
2023-01-10T10:01:26.001Z,6.50
2023-01-10T10:16:58.735Z,6.72
2023-01-10T10:32:12.752Z,8.27
2023-01-10T10:47:23.456Z,7.45
2023-01-10T11:02:32.128Z,7.57
2023-01-10T11:17:41.018Z,7.70
2023-01-10T11:32:54.750Z,7.22
2023-01-10T11:48:26.982Z,8.10
2023-01-10T12:03:38.709Z,7.80
2023-01-10T12:18:40.964Z,6.53
2023-01-10T12:34:14.993Z,6.38
2023-01-10T12:49:25.018Z,10.27
2023-01-10T13:04:27.799Z,6.78
2023-01-10T13:19:29.861Z,7.00
2023-01-10T13:34:36.480Z,7.38
2023-01-10T13:49:41.923Z,7.07
2023-01-10T14:04:51.061Z,7.43
2023-01-10T14:20:01.640Z,8.68
2023-01-10T14:35:07.042Z,9.02
2023-01-10T14:50:33.460Z,11.40
2023-01-10T15:05:50.095Z,8.10
2023-01-10T15:20:52.515Z,11.80
2023-01-10T15:35:54.828Z,13.60
2023-01-10T15:51:01.844Z,14.15
2023-01-10T16:06:09.168Z,14.40
2023-01-10T16:21:13.777Z,19.00
2023-01-10T16:36:19.276Z,20.10
2023-01-10T16:51:28.490Z,19.83
2023-01-10T17:06:30.411Z,16.50
2023-01-10T17:21:32.354Z,13.30
2023-01-10T17:36:38.784Z,17.98
2023-01-10T17:51:40.721Z,13.05
2023-01-10T18:06:42.704Z,13.48
2023-01-10T18:21:44.727Z,10.68
2023-01-10T18:36:46.693Z,11.23
2023-01-10T18:51:48.600Z,10.90
2023-01-10T19:06:50.625Z,15.02
2023-01-10T19:21:52.851Z,14.02
2023-01-10T19:36:54.803Z,15.30
2023-01-10T19:51:56.795Z,14.75
2023-01-10T20:06:58.912Z,14.77
2023-01-10T20:22:00.889Z,13.77
2023-01-10T20:37:03.040Z,13.07
2023-01-10T20:52:05.074Z,11.38
2023-01-10T21:07:07.269Z,11.63
2023-01-10T21:22:10.036Z,10.00
2023-01-10T21:37:11.980Z,9.57
2023-01-10T21:52:14.446Z,12.88
2023-01-10T22:07:17.014Z,14.68
2023-01-10T22:22:19.082Z,11.35
2023-01-10T22:37:21.067Z,13.63
2023-01-10T22:52:23.021Z,10.90
2023-01-10T23:07:24.983Z,19.60
2023-01-10T23:22:26.943Z,10.77
2023-01-10T23:37:28.913Z,11.70
2023-01-10T23:52:31.047Z,11.73
